createdAt,value
2019-01-23T00:02:37.146Z,101266.09
2019-01-23T00:05:18.209Z,101261.58
2019-01-23T00:07:59.072Z,101270.25
2019-01-23T00:10:40.242Z,101271.50
2019-01-23T00:13:21.309Z,101278.20
2019-01-23T00:16:02.283Z,101281.61
2019-01-23T00:18:43.235Z,101283.05
2019-01-23T00:21:23.897Z,101293.87
2019-01-23T00:24:04.873Z,101294.56
2019-01-23T00:26:46.441Z,101290.09
2019-01-23T00:29:27.082Z,101292.23
2019-01-23T00:32:08.052Z,101297.73
2019-01-23T00:34:49.085Z,101302.34
2019-01-23T00:37:29.963Z,101304.58
2019-01-23T00:40:10.901Z,101310.50
2019-01-23T00:42:51.553Z,101313.16
2019-01-23T00:45:32.445Z,101303.97
2019-01-23T00:48:13.845Z,101305.38
2019-01-23T00:50:54.768Z,101307.11
2019-01-23T00:53:36.360Z,101303.00
2019-01-23T00:56:17.619Z,101316.41
2019-01-23T00:58:58.900Z,101319.58
2019-01-23T01:01:40.287Z,101320.62
2019-01-23T01:04:20.501Z,101327.08
2019-01-23T01:07:01.649Z,101333.98
2019-01-23T01:09:42.768Z,101345.03
2019-01-23T01:12:23.723Z,101353.84
2019-01-23T01:15:04.826Z,101345.83
2019-01-23T01:17:46.283Z,101352.70
2019-01-23T01:20:27.246Z,101356.88
2019-01-23T01:23:08.208Z,101359.59
2019-01-23T01:25:49.306Z,101357.84
2019-01-23T01:28:30.196Z,101359.62
2019-01-23T01:31:11.307Z,101357.00
2019-01-23T01:33:52.372Z,101361.81
2019-01-23T01:36:33.404Z,101365.53
2019-01-23T01:39:14.399Z,101358.67
2019-01-23T01:41:55.559Z,101374.03
2019-01-23T01:44:36.669Z,101374.70
2019-01-23T01:47:18.284Z,101377.97
2019-01-23T01:49:59.180Z,101377.63
2019-01-23T01:52:40.403Z,101383.27
2019-01-23T01:55:21.353Z,101388.95
2019-01-23T01:58:02.599Z,101393.91
2019-01-23T02:00:43.602Z,101399.28
2019-01-23T02:03:24.722Z,101402.70
2019-01-23T02:06:06.431Z,101401.70
2019-01-23T02:08:47.443Z,101405.89
2019-01-23T02:11:28.995Z,101408.89
2019-01-23T02:14:10.259Z,101411.36
2019-01-23T02:16:51.247Z,101416.30
2019-01-23T02:19:32.516Z,101417.05
2019-01-23T02:22:13.531Z,101423.95
2019-01-23T02:24:54.444Z,101432.77
2019-01-23T02:27:35.633Z,101437.92
2019-01-23T02:30:16.520Z,101440.98
2019-01-23T02:32:57.429Z,101443.09
2019-01-23T02:35:38.401Z,101448.02
2019-01-23T02:38:19.909Z,101457.19
2019-01-23T02:41:00.676Z,101469.18
2019-01-23T02:43:41.848Z,101468.41
2019-01-23T02:46:23.417Z,101469.34
2019-01-23T02:49:04.343Z,101482.52
2019-01-23T02:51:45.372Z,101483.55
2019-01-23T02:54:25.942Z,101488.49
2019-01-23T02:57:06.810Z,101485.44
2019-01-23T02:59:47.406Z,101497.86
2019-01-23T03:02:28.638Z,101497.02
2019-01-23T03:05:09.720Z,101506.80
2019-01-23T03:07:50.729Z,101510.39
2019-01-23T03:10:31.712Z,101513.20
2019-01-23T03:13:12.993Z,101517.71
2019-01-23T03:15:53.745Z,101519.42
2019-01-23T03:18:34.483Z,101522.36
2019-01-23T03:21:15.892Z,101525.02
2019-01-23T03:23:56.939Z,101522.88
2019-01-23T03:26:37.887Z,101533.59
2019-01-23T03:29:24.556Z,101532.53
2019-01-23T03:32:00.084Z,101535.66
2019-01-23T03:34:41.353Z,101534.77
2019-01-23T03:37:22.297Z,101531.28
2019-01-23T03:40:03.441Z,101531.45
2019-01-23T03:42:44.293Z,101535.78
2019-01-23T03:45:25.466Z,101536.88
2019-01-23T03:48:06.754Z,101532.05
2019-01-23T03:50:47.814Z,101537.58
2019-01-23T03:53:28.709Z,101540.38
2019-01-23T03:56:09.654Z,101545.02
2019-01-23T03:58:50.512Z,101546.13
2019-01-23T04:01:31.614Z,101547.34
2019-01-23T04:04:12.623Z,101547.81
2019-01-23T04:06:53.802Z,101546.09
2019-01-23T04:09:34.625Z,101550.14
2019-01-23T04:12:14.767Z,101547.84
2019-01-23T04:14:56.005Z,101544.73
2019-01-23T04:17:36.442Z,101546.22
2019-01-23T04:20:17.037Z,101549.72
2019-01-23T04:22:57.888Z,101552.73
2019-01-23T04:25:38.514Z,101553.25
2019-01-23T04:28:19.855Z,101554.92
2019-01-23T04:31:00.862Z,101551.27
2019-01-23T04:33:41.715Z,101551.61
2019-01-23T04:36:22.811Z,101547.27
2019-01-23T04:39:03.747Z,101543.38
2019-01-23T04:41:44.676Z,101544.88
2019-01-23T04:44:25.241Z,101534.34
2019-01-23T04:47:06.591Z,101539.17
2019-01-23T04:49:48.183Z,101531.66
2019-01-23T04:52:29.208Z,101530.29
2019-01-23T04:55:10.080Z,101523.93
2019-01-23T04:57:51.399Z,101508.50
2019-01-23T05:00:32.303Z,101524.39
2019-01-23T05:03:13.154Z,101521.08
2019-01-23T05:05:53.947Z,101521.98
2019-01-23T05:08:34.752Z,101511.91
2019-01-23T05:11:15.304Z,101507.67
2019-01-23T05:13:56.594Z,101509.06
2019-01-23T05:16:37.670Z,101505.13
2019-01-23T05:19:18.822Z,101502.74
2019-01-23T05:21:59.487Z,101500.69
2019-01-23T05:24:41.296Z,101501.28
2019-01-23T05:27:22.278Z,101489.11
2019-01-23T05:30:02.835Z,101484.23
2019-01-23T05:32:43.838Z,101480.52
2019-01-23T05:35:24.864Z,101475.72
2019-01-23T05:38:06.783Z,101473.59
2019-01-23T05:40:48.032Z,101473.56
2019-01-23T05:43:28.998Z,101466.06
2019-01-23T05:46:09.610Z,101466.27
2019-01-23T05:48:50.470Z,101459.83
2019-01-23T05:51:31.310Z,101451.81
2019-01-23T05:54:12.190Z,101451.69
2019-01-23T05:56:53.050Z,101449.52
2019-01-23T05:59:34.123Z,101442.02
2019-01-23T06:02:14.490Z,101438.78
2019-01-23T06:04:56.250Z,101434.47
2019-01-23T06:07:39.012Z,101426.84
2019-01-23T06:10:20.358Z,101421.75
2019-01-23T06:13:01.478Z,101417.13
2019-01-23T06:15:42.548Z,101415.89
2019-01-23T06:18:23.149Z,101406.71
2019-01-23T06:21:04.077Z,101402.66
2019-01-23T06:23:45.066Z,101399.77
2019-01-23T06:26:25.834Z,101388.09
2019-01-23T06:29:06.735Z,101384.38
2019-01-23T06:31:46.885Z,101380.57
2019-01-23T06:34:27.864Z,101377.94
2019-01-23T06:37:08.505Z,101374.77
2019-01-23T06:39:49.562Z,101362.91
2019-01-23T06:42:30.637Z,101351.80
2019-01-23T06:45:11.082Z,101353.00
2019-01-23T06:47:51.699Z,101345.58
2019-01-23T06:50:32.663Z,101343.03
2019-01-23T06:53:14.217Z,101345.84
2019-01-23T06:55:53.959Z,101336.72
2019-01-23T06:58:34.029Z,101338.50
2019-01-23T07:01:14.581Z,101336.29
2019-01-23T07:03:55.040Z,101331.35
2019-01-23T07:06:35.995Z,101328.81
2019-01-23T07:09:17.444Z,101325.93
2019-01-23T07:11:58.177Z,101321.23
2019-01-23T07:14:38.055Z,101316.23
2019-01-23T07:17:18.712Z,101316.38
2019-01-23T07:19:58.940Z,101312.14
2019-01-23T07:22:40.439Z,101299.58
2019-01-23T07:25:21.715Z,101303.23
2019-01-23T07:28:02.274Z,101302.61
2019-01-23T07:30:42.935Z,101296.83
2019-01-23T07:33:23.694Z,101294.96
2019-01-23T07:36:04.483Z,101293.86
2019-01-23T07:38:45.509Z,101292.80
2019-01-23T07:41:26.535Z,101289.39
2019-01-23T07:44:07.709Z,101285.13
2019-01-23T07:46:48.763Z,101288.57
2019-01-23T07:49:29.590Z,101281.33
2019-01-23T07:52:10.655Z,101269.02
2019-01-23T07:54:51.231Z,101265.25
2019-01-23T07:57:32.173Z,101257.91
2019-01-23T08:00:12.546Z,101253.63
2019-01-23T08:02:53.328Z,101247.33
2019-01-23T08:05:34.750Z,101240.63
2019-01-23T08:08:15.474Z,101240.47
2019-01-23T08:10:56.581Z,101236.52
2019-01-23T08:13:37.090Z,101230.61
2019-01-23T08:16:17.932Z,101229.34
2019-01-23T08:18:58.888Z,101231.37
2019-01-23T08:21:39.862Z,101229.63
2019-01-23T08:24:20.267Z,101225.46
2019-01-23T08:27:06.890Z,101221.70
2019-01-23T08:29:42.748Z,101224.09
2019-01-23T08:32:23.180Z,101218.78
2019-01-23T08:35:04.067Z,101208.48
2019-01-23T08:37:45.138Z,101212.30
2019-01-23T08:40:26.252Z,101210.55
2019-01-23T08:43:06.891Z,101202.28
2019-01-23T08:45:48.262Z,101198.52
2019-01-23T08:48:28.613Z,101198.97
2019-01-23T08:51:09.545Z,101200.16
2019-01-23T08:53:49.769Z,101194.28
2019-01-23T08:56:30.420Z,101192.34
2019-01-23T08:59:11.387Z,101197.11
2019-01-23T09:01:51.902Z,101192.50
2019-01-23T09:04:32.673Z,101189.81
2019-01-23T09:07:13.630Z,101185.52
2019-01-23T09:09:54.586Z,101184.39
2019-01-23T09:12:35.965Z,101186.56
2019-01-23T09:15:17.139Z,101185.34
2019-01-23T09:17:58.356Z,101184.19
2019-01-23T09:20:39.508Z,101183.02
2019-01-23T09:23:20.664Z,101179.66
2019-01-23T09:26:01.229Z,101175.87
2019-01-23T09:28:42.195Z,101170.30
2019-01-23T09:31:23.186Z,101171.99
2019-01-23T09:34:03.596Z,101173.88
2019-01-23T09:36:44.409Z,101176.73
2019-01-23T09:39:24.550Z,101165.29
2019-01-23T09:42:06.936Z,101166.86
2019-01-23T09:44:50.513Z,101160.76
2019-01-23T09:47:31.880Z,101157.34
2019-01-23T09:50:12.874Z,101159.66
2019-01-23T09:52:53.865Z,101155.17
2019-01-23T09:55:34.392Z,101161.04
2019-01-23T09:58:15.231Z,101157.52
2019-01-23T10:00:59.691Z,101157.94
2019-01-23T10:03:38.088Z,101154.84
2019-01-23T10:06:17.960Z,101161.90
2019-01-23T10:08:58.270Z,101163.63
2019-01-23T10:11:39.181Z,101163.10
2019-01-23T10:14:20.157Z,101163.83
2019-01-23T10:17:01.120Z,101162.39
2019-01-23T10:19:41.607Z,101161.18
2019-01-23T10:22:22.707Z,101162.39
2019-01-23T10:25:03.269Z,101163.95
2019-01-23T10:27:43.983Z,101160.62
2019-01-23T10:30:24.640Z,101164.94
2019-01-23T10:33:05.070Z,101169.92
2019-01-23T10:35:46.549Z,101164.66
2019-01-23T10:38:27.509Z,101162.36
2019-01-23T10:41:07.556Z,101168.32
2019-01-23T10:43:48.545Z,101164.25
2019-01-23T10:46:29.222Z,101167.03
2019-01-23T10:49:10.180Z,101166.16
2019-01-23T10:51:50.714Z,101167.91
2019-01-23T10:54:31.668Z,101162.20
2019-01-23T10:57:12.777Z,101166.94
2019-01-23T10:59:53.218Z,101169.42
2019-01-23T11:02:34.352Z,101164.41
2019-01-23T11:05:14.632Z,101168.36
2019-01-23T11:07:55.443Z,101162.25
2019-01-23T11:10:35.929Z,101163.30
2019-01-23T11:13:16.573Z,101166.17
2019-01-23T11:15:57.694Z,101164.39
2019-01-23T11:18:38.690Z,101166.09
2019-01-23T11:21:19.712Z,101166.08
2019-01-23T11:24:00.046Z,101168.56
2019-01-23T11:26:41.375Z,101170.31
2019-01-23T11:29:22.549Z,101163.38
2019-01-23T11:32:03.360Z,101165.25
2019-01-23T11:34:44.145Z,101162.99
2019-01-23T11:37:24.529Z,101165.17
2019-01-23T11:40:05.238Z,101166.16
2019-01-23T11:42:46.529Z,101172.95
2019-01-23T11:45:26.824Z,101172.43
2019-01-23T11:48:07.376Z,101169.53
2019-01-23T11:50:48.009Z,101176.63
2019-01-23T11:53:29.053Z,101172.91
2019-01-23T11:56:10.272Z,101172.00
2019-01-23T11:58:50.976Z,101177.41
2019-01-23T12:01:31.333Z,101176.63
2019-01-23T12:04:12.095Z,101178.34
2019-01-23T12:06:53.845Z,101185.34
2019-01-23T12:09:34.395Z,101186.55
2019-01-23T12:12:15.407Z,101184.75
2019-01-23T12:14:56.789Z,101186.02
2019-01-23T12:17:37.419Z,101178.78
2019-01-23T12:20:18.411Z,101186.93
2019-01-23T12:22:59.594Z,101189.22
2019-01-23T12:25:40.603Z,101190.31
2019-01-23T12:28:21.345Z,101193.02
2019-01-23T12:31:01.977Z,101198.55
2019-01-23T12:33:43.168Z,101195.23
2019-01-23T12:36:23.886Z,101203.19
2019-01-23T12:39:05.288Z,101202.77
2019-01-23T12:41:45.875Z,101202.05
2019-01-23T12:44:26.800Z,101200.94
2019-01-23T12:47:07.469Z,101205.34
2019-01-23T12:49:47.666Z,101215.42
2019-01-23T12:52:30.362Z,101211.23
2019-01-23T12:55:11.973Z,101214.42
2019-01-23T12:57:53.510Z,101222.30
2019-01-23T13:00:34.990Z,101223.19
2019-01-23T13:03:15.647Z,101232.64
2019-01-23T13:05:55.961Z,101226.97
2019-01-23T13:08:36.395Z,101226.84
2019-01-23T13:11:20.607Z,101231.62
2019-01-23T13:14:01.905Z,101236.81
2019-01-23T13:16:44.594Z,101240.61
2019-01-23T13:19:25.486Z,101241.58
2019-01-23T13:22:06.478Z,101246.52
2019-01-23T13:24:47.074Z,101244.89
2019-01-23T13:27:28.118Z,101243.51
2019-01-23T13:30:09.239Z,101248.76
2019-01-23T13:32:50.246Z,101246.22
2019-01-23T13:35:31.136Z,101245.42
2019-01-23T13:38:11.705Z,101250.49
2019-01-23T13:40:52.525Z,101251.36
2019-01-23T13:43:33.034Z,101251.17
2019-01-23T13:46:13.792Z,101254.16
2019-01-23T13:48:54.584Z,101265.41
2019-01-23T13:51:37.812Z,101262.84
2019-01-23T13:54:18.550Z,101264.86
2019-01-23T13:56:59.764Z,101273.12
2019-01-23T13:59:40.512Z,101269.78
2019-01-23T14:02:21.575Z,101274.09
2019-01-23T14:05:02.118Z,101277.83
2019-01-23T14:07:43.405Z,101282.36
2019-01-23T14:10:24.026Z,101287.06
2019-01-23T14:13:04.965Z,101288.52
2019-01-23T14:15:46.270Z,101294.28
2019-01-23T14:18:27.314Z,101286.25
2019-01-23T14:21:08.792Z,101298.11
2019-01-23T14:23:49.016Z,101291.52
2019-01-23T14:29:22.327Z,101296.90
2019-01-23T14:32:03.814Z,101302.08
2019-01-23T14:34:46.821Z,101299.89
2019-01-23T14:37:29.605Z,101302.08
2019-01-23T14:40:10.297Z,101301.11
2019-01-23T14:42:51.211Z,101311.52
2019-01-23T14:45:32.275Z,101303.38
2019-01-23T14:48:13.162Z,101304.09
2019-01-23T14:50:53.686Z,101302.05
2019-01-23T14:53:35.378Z,101311.75
2019-01-23T14:56:15.683Z,101312.72
2019-01-23T14:58:56.663Z,101311.53
2019-01-23T15:01:37.308Z,101321.80
2019-01-23T15:04:19.014Z,101325.27
2019-01-23T15:07:00.166Z,101322.03
2019-01-23T15:09:40.708Z,101320.23
2019-01-23T15:12:21.439Z,101318.92
2019-01-23T15:15:02.403Z,101315.81
2019-01-23T15:17:43.703Z,101320.94
2019-01-23T15:20:25.102Z,101329.20
2019-01-23T15:23:07.186Z,101325.61
2019-01-23T15:25:48.306Z,101328.33
2019-01-23T15:28:29.173Z,101333.72
2019-01-23T15:31:09.755Z,101332.51
2019-01-23T15:33:50.821Z,101328.77
2019-01-23T15:36:31.688Z,101335.06
2019-01-23T15:39:13.076Z,101326.08
2019-01-23T15:41:54.305Z,101325.21
2019-01-23T15:44:35.428Z,101331.64
2019-01-23T15:47:16.182Z,101330.54
2019-01-23T15:49:57.604Z,101332.55
2019-01-23T15:52:39.148Z,101333.62
2019-01-23T15:55:21.922Z,101332.66
2019-01-23T15:58:02.780Z,101331.91
2019-01-23T16:00:45.361Z,101335.50
2019-01-23T16:03:26.539Z,101336.81
2019-01-23T16:06:07.427Z,101338.81
2019-01-23T16:08:48.245Z,101338.33
2019-01-23T16:11:29.964Z,101344.63
2019-01-23T16:14:11.570Z,101341.77
2019-01-23T16:16:52.655Z,101343.28
2019-01-23T16:19:33.823Z,101344.39
2019-01-23T16:22:14.337Z,101342.08
2019-01-23T16:24:55.470Z,101348.06
2019-01-23T16:30:21.175Z,101353.59
2019-01-23T16:33:02.231Z,101354.06
2019-01-23T16:35:43.074Z,101353.59
2019-01-23T16:38:24.179Z,101354.89
2019-01-23T16:41:06.025Z,101347.92
2019-01-23T16:43:47.327Z,101350.36
2019-01-23T16:46:28.244Z,101353.39
2019-01-23T16:49:09.023Z,101350.05
2019-01-23T16:51:51.410Z,101347.09
2019-01-23T16:54:32.187Z,101345.42
2019-01-23T16:57:13.361Z,101349.45
2019-01-23T16:59:54.615Z,101349.77
2019-01-23T17:02:38.628Z,101343.67
2019-01-23T17:05:16.503Z,101349.00
2019-01-23T17:08:01.801Z,101353.02
2019-01-23T17:13:32.882Z,101341.75
2019-01-23T17:16:15.420Z,101345.69
2019-01-23T17:18:57.581Z,101336.13
2019-01-23T17:21:38.097Z,101336.86
2019-01-23T17:24:23.027Z,101338.37
2019-01-23T17:27:06.482Z,101338.52
2019-01-23T17:29:47.820Z,101334.09
2019-01-23T17:35:18.331Z,101333.10
2019-01-23T17:38:04.221Z,101336.79
2019-01-23T17:51:58.135Z,101333.27
2019-01-23T17:54:39.090Z,101331.73
2019-01-23T17:57:20.025Z,101326.55
2019-01-23T18:00:01.029Z,101330.77
2019-01-23T18:02:42.920Z,101329.39
2019-01-23T18:05:23.950Z,101329.39
2019-01-23T18:08:05.261Z,101334.72
2019-01-23T18:10:45.854Z,101330.12
2019-01-23T18:13:26.693Z,101337.74
2019-01-23T18:16:13.487Z,101330.76
2019-01-23T18:18:54.174Z,101331.17
2019-01-23T18:21:34.982Z,101335.23
2019-01-23T18:24:15.649Z,101335.23
2019-01-23T18:26:56.286Z,101330.58
2019-01-23T18:29:37.275Z,101329.92
2019-01-23T18:32:17.949Z,101331.63
2019-01-23T18:34:58.835Z,101331.63
2019-01-23T18:37:39.660Z,101337.80
2019-01-23T18:40:20.356Z,101332.25
2019-01-23T18:43:01.290Z,101337.78
2019-01-23T18:45:41.984Z,101335.75
2019-01-23T18:48:23.357Z,101336.49
2019-01-23T18:51:04.590Z,101334.35
2019-01-23T18:53:45.648Z,101337.45
2019-01-23T18:56:26.616Z,101341.02
2019-01-23T18:59:07.724Z,101338.58
2019-01-23T19:01:48.853Z,101340.80
2019-01-23T19:04:29.849Z,101337.02
2019-01-23T19:07:10.459Z,101332.45
2019-01-23T19:09:52.363Z,101336.72
2019-01-23T19:12:32.702Z,101330.94
2019-01-23T19:15:12.917Z,101333.38
2019-01-23T19:17:54.099Z,101330.38
2019-01-23T19:20:34.981Z,101328.34
2019-01-23T19:23:15.581Z,101325.72
2019-01-23T19:25:55.943Z,101318.47
2019-01-23T19:28:36.977Z,101314.94
2019-01-23T19:31:17.593Z,101320.48
2019-01-23T19:33:58.274Z,101324.99
2019-01-23T19:36:39.417Z,101311.27
2019-01-23T19:39:20.447Z,101306.48
2019-01-23T19:42:01.307Z,101304.05
2019-01-23T19:44:41.984Z,101303.11
2019-01-23T19:47:22.959Z,101299.94
2019-01-23T19:50:03.715Z,101298.95
2019-01-23T19:52:44.508Z,101297.09
2019-01-23T19:55:24.966Z,101291.84
2019-01-23T19:58:06.117Z,101294.10
2019-01-23T20:00:46.796Z,101286.48
2019-01-23T20:03:28.065Z,101287.79
2019-01-23T20:06:08.836Z,101286.21
2019-01-23T20:08:49.545Z,101286.49
2019-01-23T20:11:30.597Z,101289.11
2019-01-23T20:14:11.516Z,101283.98
2019-01-23T20:16:52.551Z,101280.91
2019-01-23T20:19:33.695Z,101279.25
2019-01-23T20:22:14.517Z,101276.66
2019-01-23T20:24:55.745Z,101270.21
2019-01-23T20:27:36.680Z,101267.66
2019-01-23T20:30:17.662Z,101264.88
2019-01-23T20:32:58.438Z,101264.41
2019-01-23T20:35:39.455Z,101258.60
2019-01-23T20:38:20.066Z,101263.94
2019-01-23T20:41:01.546Z,101261.97
2019-01-23T20:43:42.067Z,101260.65
2019-01-23T20:46:23.391Z,101264.50
2019-01-23T20:49:04.381Z,101262.64
2019-01-23T20:51:45.240Z,101256.55
2019-01-23T20:54:25.786Z,101258.88
2019-01-23T20:57:07.261Z,101263.37
2019-01-23T20:59:48.164Z,101264.80
2019-01-23T21:02:28.609Z,101257.03
2019-01-23T21:05:09.229Z,101262.91
2019-01-23T21:07:49.818Z,101256.64
2019-01-23T21:10:30.475Z,101255.53
2019-01-23T21:13:10.964Z,101258.05
2019-01-23T21:15:51.672Z,101258.41
2019-01-23T21:18:31.992Z,101261.03
2019-01-23T21:21:12.376Z,101258.61
2019-01-23T21:23:52.805Z,101257.56
2019-01-23T21:26:33.182Z,101259.17
2019-01-23T21:29:13.822Z,101254.56
2019-01-23T21:31:54.474Z,101249.66
2019-01-23T21:34:35.189Z,101252.28
2019-01-23T21:37:16.178Z,101250.48
2019-01-23T21:39:56.839Z,101248.16
2019-01-23T21:42:37.511Z,101243.47
2019-01-23T21:45:18.159Z,101250.02
2019-01-23T21:47:58.750Z,101255.80
2019-01-23T21:50:39.391Z,101255.99
2019-01-23T21:53:19.828Z,101255.80
2019-01-23T21:56:00.806Z,101260.21
2019-01-23T21:58:42.330Z,101263.77
2019-01-23T22:01:23.296Z,101263.36
2019-01-23T22:04:04.101Z,101262.72
2019-01-23T22:06:45.133Z,101266.74
2019-01-23T22:09:26.180Z,101259.91
2019-01-23T22:12:07.458Z,101261.69
2019-01-23T22:14:48.346Z,101260.84
2019-01-23T22:17:28.971Z,101253.57
2019-01-23T22:20:09.780Z,101261.69
2019-01-23T22:22:50.953Z,101264.97
2019-01-23T22:25:31.584Z,101264.56
2019-01-23T22:28:12.399Z,101265.13
2019-01-23T22:30:53.374Z,101262.25
2019-01-23T22:33:34.219Z,101260.28
2019-01-23T22:36:15.166Z,101262.36
2019-01-23T22:38:56.469Z,101260.37
2019-01-23T22:41:37.986Z,101256.09
2019-01-23T22:44:18.970Z,101253.10
2019-01-23T22:47:00.196Z,101261.42
2019-01-23T22:49:41.107Z,101266.55
2019-01-23T22:52:21.753Z,101270.84
2019-01-23T22:55:02.827Z,101271.78
2019-01-23T22:57:44.389Z,101270.67
2019-01-23T23:00:25.232Z,101267.85
2019-01-23T23:03:06.647Z,101270.66
2019-01-23T23:05:47.534Z,101274.39
2019-01-23T23:08:28.529Z,101276.27
2019-01-23T23:11:09.319Z,101277.27
2019-01-23T23:13:50.579Z,101275.33
2019-01-23T23:16:31.741Z,101276.53
2019-01-23T23:19:13.753Z,101289.05
2019-01-23T23:21:54.905Z,101279.52
2019-01-23T23:24:36.088Z,101290.55
2019-01-23T23:27:16.972Z,101287.84
2019-01-23T23:29:57.685Z,101290.75
2019-01-23T23:32:38.462Z,101296.36
2019-01-23T23:35:19.386Z,101298.14
2019-01-23T23:38:00.676Z,101299.66
2019-01-23T23:40:41.978Z,101300.45
2019-01-23T23:43:23.042Z,101302.80
2019-01-23T23:46:03.797Z,101301.13
2019-01-23T23:48:44.821Z,101306.83
2019-01-23T23:51:26.104Z,101309.34
2019-01-23T23:54:07.378Z,101318.23
2019-01-23T23:56:48.255Z,101323.58
2019-01-23T23:59:29.313Z,101326.55
